Chakra — J8Y4579 — position and weather

sailwx.info

Track history (hours):
 
Tides and Currents Weather Stations Pressure Air Temp Water Temp Dewpoint Dewpoint Depression Visibility Wind Speed Wind Dir Waves Ship Positions

Chakra

Last reported at 2017-Sep-26 15:51 UTC. Time now 2017-Sep-26 22:02 UTC.
Position N 36°08' W 005°22'.

Length 75 m; draft 5.5 m.

Type: Other ship. MMSI: 377427000.

Date/timePositionNaut miles runAvg speedWind from/ knotsBaromVisibWave heightAir tempDewpointWater temp
2017-Sep-26 15:51N 36°08' W 005°22'0 0.0
2017-Sep-25 20:10N 36°08' W 005°22'0 0.5
2017-Sep-25 19:34N 36°09' W 005°22'0 0.0
2017-Sep-25 19:19N 36°09' W 005°22'0 0.0
2017-Sep-25 18:55N 36°09' W 005°22'0 0.1
2017-Sep-25 15:46N 36°09' W 005°22'2 6.2
2017-Sep-25 15:29N 36°07' W 005°23'2 4.3
2017-Sep-25 14:56N 36°06' W 005°20'1 2.3
2017-Sep-25 14:20N 36°06' W 005°21'4 5.4
2017-Sep-25 13:31N 36°02' W 005°23'012.8
2017-Sep-25 13:30N 36°01' W 005°23'  
2017-Sep-21 05:43N 35°57' W 005°41'5 8.0
2017-Sep-21 05:04N 35°57' W 005°35'0 7.6
2017-Sep-21 05:00N 35°58' W 005°34'4 8.4
2017-Sep-21 04:30N 35°59' W 005°29'4 8.0
2017-Sep-21 04:00N 36°00' W 005°25'4 7.9
2017-Sep-21 03:30N 36°02' W 005°20'4 8.4
2017-Sep-21 03:00N 36°02' W 005°15'  
2017-Sep-18 08:38N 38°52' E 008°54'212.9
2017-Sep-18 08:29N 38°51' E 008°56'1712.7
2017-Sep-18 07:07N 38°50' E 009°19'112.4
2017-Sep-18 07:00N 38°50' E 009°20'16812.1
2017-Sep-17 17:07N 38°35' E 012°55'311.8
2017-Sep-17 16:50N 38°35' E 012°60'512.0
2017-Sep-17 16:26N 38°34' E 013°06'512.0
2017-Sep-17 15:59N 38°34' E 013°13'612.0
2017-Sep-17 15:30N 38°33' E 013°20'612.0
2017-Sep-17 15:00N 38°33' E 013°28'6812.1
2017-Sep-17 09:25N 38°26' E 014°54'4 8.7
2017-Sep-17 08:59N 38°26' E 014°59'1 0.2
2017-Sep-17 05:30N 38°25' E 014°58'0 0.0
2017-Sep-17 03:48N 38°25' E 014°58'0 0.0
2017-Sep-17 03:18N 38°25' E 014°58'0 0.0
2017-Sep-17 02:48N 38°25' E 014°58'0 0.0
2017-Sep-16 18:36N 38°25' E 014°58'0 0.0
2017-Sep-16 18:27N 38°25' E 014°58'0 0.0
2017-Sep-16 17:15N 38°25' E 014°58'0 0.0
2017-Sep-16 16:45N 38°25' E 014°58'0 0.0
2017-Sep-16 16:30N 38°25' E 014°58'  
Track history (hours):
 
Tides and Currents Weather Stations Pressure Air Temp Water Temp Dewpoint Dewpoint Depression Visibility Wind Speed Wind Dir Waves Ship Positions

Chakra

Last reported at 2017-Sep-26 15:51 UTC. Time now 2017-Sep-26 22:02 UTC.
Position N 36°08' W 005°22'.

Length 75 m; draft 5.5 m.

Type: Other ship. MMSI: 377427000.

Date/timePositionNaut miles runAvg speedWind from/ knotsBaromVisibWave heightAir tempDewpointWater temp
2017-Sep-26 15:51N 36°08' W 005°22'0 0.0
2017-Sep-25 20:10N 36°08' W 005°22'0 0.5
2017-Sep-25 19:34N 36°09' W 005°22'0 0.0
2017-Sep-25 19:19N 36°09' W 005°22'0 0.0
2017-Sep-25 18:55N 36°09' W 005°22'0 0.1
2017-Sep-25 15:46N 36°09' W 005°22'2 6.2
2017-Sep-25 15:29N 36°07' W 005°23'2 4.3
2017-Sep-25 14:56N 36°06' W 005°20'1 2.3
2017-Sep-25 14:20N 36°06' W 005°21'4 5.4
2017-Sep-25 13:31N 36°02' W 005°23'012.8
2017-Sep-25 13:30N 36°01' W 005°23'  
2017-Sep-21 05:43N 35°57' W 005°41'5 8.0
2017-Sep-21 05:04N 35°57' W 005°35'0 7.6
2017-Sep-21 05:00N 35°58' W 005°34'4 8.4
2017-Sep-21 04:30N 35°59' W 005°29'4 8.0
2017-Sep-21 04:00N 36°00' W 005°25'4 7.9
2017-Sep-21 03:30N 36°02' W 005°20'4 8.4
2017-Sep-21 03:00N 36°02' W 005°15'  
2017-Sep-18 08:38N 38°52' E 008°54'212.9
2017-Sep-18 08:29N 38°51' E 008°56'1712.7
2017-Sep-18 07:07N 38°50' E 009°19'112.4
2017-Sep-18 07:00N 38°50' E 009°20'16812.1
2017-Sep-17 17:07N 38°35' E 012°55'311.8
2017-Sep-17 16:50N 38°35' E 012°60'512.0
2017-Sep-17 16:26N 38°34' E 013°06'512.0
2017-Sep-17 15:59N 38°34' E 013°13'612.0
2017-Sep-17 15:30N 38°33' E 013°20'612.0
2017-Sep-17 15:00N 38°33' E 013°28'6812.1
2017-Sep-17 09:25N 38°26' E 014°54'4 8.7
2017-Sep-17 08:59N 38°26' E 014°59'1 0.2
2017-Sep-17 05:30N 38°25' E 014°58'0 0.0
2017-Sep-17 03:48N 38°25' E 014°58'0 0.0
2017-Sep-17 03:18N 38°25' E 014°58'0 0.0
2017-Sep-17 02:48N 38°25' E 014°58'0 0.0
2017-Sep-16 18:36N 38°25' E 014°58'0 0.0
2017-Sep-16 18:27N 38°25' E 014°58'0 0.0
2017-Sep-16 17:15N 38°25' E 014°58'0 0.0
2017-Sep-16 16:45N 38°25' E 014°58'0 0.0
2017-Sep-16 16:30N 38°25' E 014°58'  

Dump ship's entire track history